Time;durP1;ratioP1;P1;durP2;ratioP2;P2;SDS_P1;SDS_P2;PMS_P1;PMS_P2;Temp;Humidity;BMP_temperature;BMP_pressure;BME280_temperature;BME280_humidity;BME280_pressure;Samples;Min_cycle;Max_cycle;Signal;HPM_P1;HPM_P2
2021/05/17 00:01:13;;;;;;;8.05;1.10;;;;;;;18.22;60.76;100695.19;5070295;28;20131;-66
2021/05/17 00:03:42;;;;;;;9.85;1.50;;;;;;;18.28;60.49;100693.28;5072962;28;20048;-66
2021/05/17 00:06:10;;;;;;;4.68;0.88;;;;;;;18.33;60.27;100696.75;5071734;28;20040;-67
2021/05/17 00:08:38;;;;;;;7.95;1.63;;;;;;;18.35;60.52;100695.84;5071450;28;20447;-66
2021/05/17 00:11:07;;;;;;;7.65;1.10;;;;;;;18.26;60.62;100697.75;5072830;28;20033;-65
2021/05/17 00:13:34;;;;;;;17.83;1.42;;;;;;;18.04;61.43;100701.72;5067448;28;20040;-66
2021/05/17 00:16:02;;;;;;;4.20;1.42;;;;;;;18.01;61.29;100688.41;5072218;28;20504;-66
2021/05/17 00:18:30;;;;;;;8.13;1.70;;;;;;;17.99;61.33;100690.19;5071730;28;20567;-66
2021/05/17 00:20:57;;;;;;;7.43;1.27;;;;;;;17.87;61.42;100696.63;5070485;28;20124;-66
2021/05/17 00:23:25;;;;;;;6.22;1.38;;;;;;;17.68;62.08;100684.47;5071212;28;20036;-66
2021/05/17 00:25:52;;;;;;;8.05;1.20;;;;;;;17.75;61.96;100691.47;5071478;28;20033;-66
2021/05/17 00:28:20;;;;;;;11.50;1.85;;;;;;;17.85;61.39;100690.41;5070297;28;20058;-66
2021/05/17 00:30:47;;;;;;;6.05;1.15;;;;;;;17.97;61.68;100683.13;5071009;28;20056;-66
2021/05/17 00:33:16;;;;;;;4.90;1.15;;;;;;;17.99;61.81;100695.53;5066168;28;20068;-66
2021/05/17 00:35:44;;;;;;;4.28;1.13;;;;;;;17.90;61.56;100696.59;5072027;28;20543;-66
2021/05/17 00:38:12;;;;;;;5.72;1.10;;;;;;;17.82;61.60;100692.25;5070708;28;20033;-66
2021/05/17 00:40:39;;;;;;;9.80;1.60;;;;;;;17.79;61.88;100693.19;5070308;28;20489;-66
2021/05/17 00:43:08;;;;;;;7.53;1.50;;;;;;;17.84;61.88;100690.47;5071230;28;20079;-66
2021/05/17 00:45:35;;;;;;;8.10;1.10;;;;;;;17.86;61.89;100691.28;5071018;28;20025;-66
2021/05/17 00:48:03;;;;;;;6.78;1.40;;;;;;;17.75;62.18;100694.16;5070318;28;20040;-66
2021/05/17 00:50:32;;;;;;;3.08;0.80;;;;;;;17.66;62.06;100694.25;5069959;28;20061;-66
2021/05/17 00:53:00;;;;;;;4.97;1.30;;;;;;;17.56;62.50;100689.06;5069429;28;20112;-66
2021/05/17 00:55:29;;;;;;;5.47;0.93;;;;;;;17.40;62.47;100691.03;5072022;28;20032;-66
2021/05/17 00:57:57;;;;;;;3.97;1.33;;;;;;;17.32;62.94;100690.28;5069907;28;20037;-66
2021/05/17 01:00:27;;;;;;;5.70;1.40;;;;;;;17.40;62.63;100686.59;5070349;28;20624;-66
2021/05/17 01:02:54;;;;;;;6.40;1.00;;;;;;;17.50;62.45;100690.91;5070301;28;20036;-66
2021/05/17 01:05:22;;;;;;;6.32;1.30;;;;;;;17.58;62.26;100689.94;5071944;28;20036;-66
2021/05/17 01:07:50;;;;;;;5.82;1.13;;;;;;;17.46;62.41;100678.50;5067863;28;20520;-66
2021/05/17 01:10:19;;;;;;;4.65;1.17;;;;;;;17.39;62.26;100678.63;5069839;28;20044;-67
2021/05/17 01:12:49;;;;;;;5.05;1.10;;;;;;;17.22;62.82;100677.94;5069657;28;20040;-66
2021/05/17 01:15:18;;;;;;;7.45;1.08;;;;;;;17.18;63.01;100674.44;5070605;28;20170;-66
2021/05/17 01:17:45;;;;;;;7.30;1.38;;;;;;;17.14;62.75;100681.59;5069188;28;20127;-66
2021/05/17 01:20:14;;;;;;;7.45;1.40;;;;;;;17.17;63.03;100682.47;5071573;28;20051;-66
2021/05/17 01:22:52;;;;;;;6.50;1.38;;;;;;;17.19;62.74;100686.91;5070362;28;20551;-66
2021/05/17 01:25:23;;;;;;;3.70;1.00;;;;;;;17.24;62.91;100679.72;5069628;28;20558;-66
2021/05/17 01:27:51;;;;;;;4.47;1.52;;;;;;;17.12;62.96;100687.88;5066098;28;20029;-66
2021/05/17 01:30:21;;;;;;;5.80;1.08;;;;;;;17.13;63.10;100678.97;5067454;28;20043;-66
2021/05/17 01:32:51;;;;;;;6.43;0.93;;;;;;;17.12;62.99;100683.41;5067885;28;20068;-66
2021/05/17 01:35:20;;;;;;;8.45;1.10;;;;;;;17.13;62.90;100676.31;5070414;28;20032;-66
2021/05/17 01:37:49;;;;;;;3.72;1.40;;;;;;;17.23;62.56;100677.94;5069710;28;20058;-66
2021/05/17 01:40:19;;;;;;;2.83;0.85;;;;;;;17.23;62.96;100677.94;5070104;28;20128;-66
2021/05/17 01:42:49;;;;;;;5.25;1.42;;;;;;;17.23;62.65;100683.28;5067117;28;20060;-66
2021/05/17 01:45:16;;;;;;;5.88;1.30;;;;;;;17.23;62.23;100685.94;5069709;28;20037;-66
2021/05/17 01:47:45;;;;;;;8.38;1.48;;;;;;;17.05;62.72;100678.19;5071152;28;20043;-66
2021/05/17 01:50:15;;;;;;;5.20;1.05;;;;;;;16.85;63.24;100689.06;5069256;28;20108;-66
2021/05/17 01:52:42;;;;;;;6.60;1.45;;;;;;;16.85;63.51;100688.19;5070587;28;20037;-66
2021/05/17 01:55:11;;;;;;;7.53;1.30;;;;;;;16.80;63.66;100690.91;5068124;28;20041;-66
2021/05/17 01:57:39;;;;;;;5.63;1.10;;;;;;;16.85;63.28;100696.19;5069109;28;20049;-66
2021/05/17 02:00:11;;;;;;;9.52;1.35;;;;;;;16.84;63.12;100699.75;5067313;28;20086;-66
2021/05/17 02:02:39;;;;;;;4.20;1.00;;;;;;;16.88;63.04;100704.13;5068876;28;20048;-66
2021/05/17 02:05:08;;;;;;;7.63;0.90;;;;;;;16.91;62.83;100701.44;5068170;28;20036;-66
2021/05/17 02:07:35;;;;;;;5.57;1.08;;;;;;;16.84;62.76;100699.75;5067436;28;20079;-66
2021/05/17 02:10:06;;;;;;;3.10;0.88;;;;;;;16.74;63.36;100701.63;5070665;28;20074;-66
2021/05/17 02:12:34;;;;;;;3.60;0.90;;;;;;;16.71;63.10;100709.66;5065328;28;20061;-66
2021/05/17 02:15:01;;;;;;;3.85;0.70;;;;;;;16.60;63.33;100707.13;5068242;28;20127;-66
2021/05/17 02:17:30;;;;;;;3.70;0.75;;;;;;;16.69;62.81;100715.00;5050803;28;20400;-66
2021/05/17 02:19:59;;;;;;;4.20;0.77;;;;;;;16.76;62.79;100720.28;5058228;28;20036;-66
2021/05/17 02:22:26;;;;;;;7.10;1.20;;;;;;;16.81;62.82;100729.09;5069787;28;20063;-66
2021/05/17 02:24:54;;;;;;;2.75;0.80;;;;;;;16.73;62.47;100729.19;5068797;28;20422;-66
2021/05/17 02:27:22;;;;;;;6.30;0.90;;;;;;;16.71;62.43;100729.22;5066372;28;20043;-66
2021/05/17 02:29:49;;;;;;;4.32;1.02;;;;;;;16.66;62.46;100731.03;5069401;28;20036;-66
2021/05/17 02:32:20;;;;;;;4.97;1.00;;;;;;;16.63;62.66;100738.16;5070020;28;20055;-66
2021/05/17 02:34:51;;;;;;;5.72;0.90;;;;;;;16.57;62.82;100741.75;5069050;28;20910;-66
2021/05/17 02:37:18;;;;;;;3.70;1.10;;;;;;;16.57;62.54;100736.41;5071057;28;20144;-66
2021/05/17 02:39:46;;;;;;;5.03;0.90;;;;;;;16.59;62.24;100733.75;5073648;28;20123;-66
2021/05/17 02:42:17;;;;;;;4.32;0.80;;;;;;;16.53;62.41;100734.69;5069813;28;20071;-67
2021/05/17 02:44:45;;;;;;;7.78;0.75;;;;;;;16.39;62.58;100735.72;5071072;28;20044;-66
2021/05/17 02:47:12;;;;;;;4.20;0.80;;;;;;;16.32;62.94;100732.22;5072152;28;20119;-66
2021/05/17 02:49:41;;;;;;;3.67;1.00;;;;;;;16.39;62.57;100731.25;5072061;28;20063;-66
2021/05/17 02:52:11;;;;;;;2.60;0.85;;;;;;;16.46;62.39;100732.97;5073072;28;20035;-66
2021/05/17 02:54:42;;;;;;;4.70;0.82;;;;;;;16.45;62.31;100730.31;5071330;28;20068;-67
2021/05/17 02:57:13;;;;;;;6.25;1.15;;;;;;;16.52;62.35;100729.38;5072858;28;20094;-66
2021/05/17 03:00:02;;;;;;;5.15;0.68;;;;;;;16.53;61.84;100734.69;5072952;28;20576;-66
2021/05/17 03:02:32;;;;;;;10.35;1.38;;;;;;;16.52;62.00;100735.59;5071681;28;20488;-66
2021/05/17 03:05:01;;;;;;;5.65;0.88;;;;;;;16.57;61.52;100733.75;5072750;28;20492;-66
2021/05/17 03:07:35;;;;;;;3.95;1.02;;;;;;;16.54;61.43;100738.25;5076785;28;20032;-66
2021/05/17 03:10:05;;;;;;;5.75;1.75;;;;;;;16.45;61.62;100736.53;5073150;28;20037;-67
2021/05/17 03:12:34;;;;;;;4.85;0.82;;;;;;;16.42;61.68;100738.31;5069855;28;20132;-66
2021/05/17 03:15:02;;;;;;;4.15;0.75;;;;;;;16.39;61.77;100727.72;5068847;28;20127;-66
2021/05/17 03:17:30;;;;;;;4.65;0.82;;;;;;;16.45;61.48;100720.56;5070761;28;20517;-66
2021/05/17 03:19:57;;;;;;;4.43;0.70;;;;;;;16.51;60.79;100733.81;5073357;28;20036;-66
2021/05/17 03:22:25;;;;;;;4.70;0.60;;;;;;;16.48;61.41;100731.16;5071327;28;20124;-66
2021/05/17 03:24:55;;;;;;;4.05;0.73;;;;;;;16.46;61.07;100726.75;5073428;28;20063;-66
2021/05/17 03:27:23;;;;;;;4.65;0.80;;;;;;;16.53;61.64;100729.38;5071142;28;20041;-66
2021/05/17 03:29:51;;;;;;;4.90;0.80;;;;;;;16.57;61.58;100733.75;5072396;28;20040;-66
2021/05/17 03:32:18;;;;;;;3.30;0.90;;;;;;;16.69;61.22;100738.09;5070784;28;20041;-66
2021/05/17 03:34:46;;;;;;;1.65;0.60;;;;;;;16.82;61.16;100739.75;5073641;28;20044;-66
2021/05/17 03:37:13;;;;;;;5.18;0.60;;;;;;;16.93;60.80;100737.00;5072088;28;20051;-66
2021/05/17 03:39:44;;;;;;;2.13;0.70;;;;;;;17.08;60.96;100736.81;5071746;28;20413;-66
2021/05/17 03:42:13;;;;;;;3.70;0.70;;;;;;;17.15;60.57;100733.16;5072850;28;20109;-66
2021/05/17 03:44:40;;;;;;;3.33;0.68;;;;;;;17.22;60.10;100733.97;5072254;28;20052;-67
2021/05/17 03:47:07;;;;;;;3.22;0.80;;;;;;;17.14;59.46;100737.63;5073604;28;20115;-66
2021/05/17 03:49:35;;;;;;;2.88;0.57;;;;;;;17.08;59.48;100737.69;5073426;28;20064;-66
2021/05/17 03:52:02;;;;;;;2.08;0.77;;;;;;;17.23;59.21;100736.63;5070349;28;20480;-66
2021/05/17 03:54:29;;;;;;;4.57;0.60;;;;;;;17.36;59.66;100737.38;5073199;28;20068;-66
2021/05/17 03:56:58;;;;;;;2.83;0.70;;;;;;;17.66;59.49;100744.09;5072384;28;20150;-66
2021/05/17 03:59:26;;;;;;;2.00;1.08;;;;;;;17.97;59.47;100744.56;5068126;28;20057;-66
2021/05/17 04:01:53;;;;;;;5.95;1.55;;;;;;;18.20;58.79;100756.66;5070215;28;20051;-66
2021/05/17 04:04:23;;;;;;;7.65;2.08;;;;;;;18.42;58.94;100756.31;5071462;28;20032;-66
2021/05/17 04:06:56;;;;;;;6.47;2.78;;;;;;;18.58;58.77;100757.84;5071487;28;20515;-66
2021/05/17 04:14:55;;;;;;;4.22;0.95;;;;;;;19.08;56.16;100776.56;5072468;28;20041;-66
2021/05/17 04:17:22;;;;;;;1.20;0.47;;;;;;;19.13;55.59;100770.22;5070787;28;20059;-66
2021/05/17 04:19:49;;;;;;;4.38;1.00;;;;;;;19.19;54.93;100773.66;5072461;28;20064;-67
2021/05/17 04:22:17;;;;;;;3.25;0.73;;;;;;;19.33;54.67;100776.06;5072087;28;20451;-66
2021/05/17 04:24:44;;;;;;;2.42;0.70;;;;;;;19.61;54.51;100781.78;5072726;28;20044;-66
2021/05/17 04:27:11;;;;;;;2.83;1.15;;;;;;;19.84;53.97;100788.41;5070494;28;20052;-67
2021/05/17 04:29:38;;;;;;;2.38;0.77;;;;;;;19.98;54.02;100790.78;5072490;28;20051;-66
2021/05/17 04:32:07;;;;;;;3.58;0.80;;;;;;;20.27;53.49;100795.47;5069999;28;20079;-66
2021/05/17 04:34:34;;;;;;;2.47;0.55;;;;;;;20.58;53.21;100791.16;5071979;28;20550;-66
2021/05/17 04:37:01;;;;;;;4.78;0.50;;;;;;;20.95;52.67;100793.75;5070980;28;20029;-66
2021/05/17 04:39:28;;;;;;;2.63;0.40;;;;;;;21.31;51.47;100791.94;5072377;28;20127;-66
2021/05/17 04:41:55;;;;;;;0.70;0.40;;;;;;;21.64;50.80;100792.75;5070278;28;20066;-66
2021/05/17 04:44:23;;;;;;;3.38;0.50;;;;;;;21.94;50.09;100801.69;5070039;28;20108;-66
2021/05/17 04:46:50;;;;;;;4.85;0.70;;;;;;;22.13;49.57;100800.25;5071731;28;20124;-66
2021/05/17 04:49:18;;;;;;;5.53;1.30;;;;;;;22.36;49.24;100807.59;5072341;28;20053;-67
2021/05/17 04:51:46;;;;;;;4.65;0.70;;;;;;;22.60;48.30;100811.28;5071809;28;20130;-66
2021/05/17 04:54:13;;;;;;;4.93;0.52;;;;;;;22.88;47.43;100811.28;5072076;28;20040;-67
2021/05/17 04:56:40;;;;;;;1.60;0.30;;;;;;;23.18;46.65;100809.31;5070917;28;20052;-66
2021/05/17 04:59:07;;;;;;;2.83;0.63;;;;;;;23.48;45.91;100816.34;5071341;28;20592;-67
2021/05/17 05:01:34;;;;;;;1.33;0.30;;;;;;;23.78;45.61;100809.78;5068892;28;20056;-66
2021/05/17 05:04:02;;;;;;;4.25;0.50;;;;;;;24.11;44.61;100814.81;5071637;28;20037;-66
2021/05/17 05:06:31;;;;;;;3.10;0.30;;;;;;;24.50;44.09;100809.66;5066118;28;20068;-66
2021/05/17 05:08:59;;;;;;;1.95;0.60;;;;;;;24.84;43.38;100811.84;5066047;28;20052;-67
2021/05/17 05:11:26;;;;;;;5.57;0.60;;;;;;;25.09;42.67;100812.56;5060702;28;20049;-66
2021/05/17 05:13:53;;;;;;;2.15;0.50;;;;;;;25.33;42.06;100819.63;5060403;28;20041;-66
2021/05/17 05:16:20;;;;;;;3.13;0.60;;;;;;;25.68;41.47;100820.75;5066258;28;20063;-66
2021/05/17 05:18:47;;;;;;;1.45;0.32;;;;;;;25.89;41.26;100821.59;5070138;28;20086;-66
2021/05/17 05:21:15;;;;;;;3.20;0.77;;;;;;;26.11;40.61;100822.34;5070511;28;20036;-67
2021/05/17 05:23:45;;;;;;;9.80;1.20;;;;;;;26.40;40.49;100825.50;5071270;28;20074;-67
2021/05/17 05:29:03;;;;;;;4.13;1.10;;;;;;;26.80;40.91;100821.69;5067852;28;20045;-66
2021/05/17 05:31:34;;;;;;;6.72;0.93;;;;;;;27.02;40.29;100826.94;5060847;28;20032;-67
2021/05/17 05:34:03;;;;;;;3.50;0.90;;;;;;;27.14;40.17;100826.28;5068734;28;20442;-66
2021/05/17 05:36:31;;;;;;;4.03;0.68;;;;;;;27.28;40.32;100831.88;5068916;28;20059;-66
2021/05/17 05:38:59;;;;;;;4.65;0.98;;;;;;;27.47;39.48;100840.78;5069811;28;20063;-66
2021/05/17 05:41:26;;;;;;;6.20;0.88;;;;;;;27.56;39.40;100837.63;5070660;28;20049;-67
2021/05/17 05:43:54;;;;;;;6.35;1.05;;;;;;;27.74;39.07;100838.47;5070795;28;20055;-67
2021/05/17 05:46:22;;;;;;;4.55;0.95;;;;;;;27.90;38.80;100835.78;5070982;28;20446;-67
2021/05/17 05:48:49;;;;;;;6.63;1.23;;;;;;;28.12;38.90;100836.34;5058845;28;20047;-66
2021/05/17 05:51:18;;;;;;;9.18;1.35;;;;;;;28.33;38.86;100837.00;5050740;28;20048;-66
2021/05/17 05:53:45;;;;;;;4.35;0.70;;;;;;;28.36;38.07;100836.81;5052939;28;20045;-66
2021/05/17 05:56:14;;;;;;;5.57;1.30;;;;;;;28.51;38.12;100836.84;5068966;28;20040;-66
2021/05/17 05:58:43;;;;;;;5.20;0.88;;;;;;;28.52;37.65;100846.75;5069812;28;20075;-66
2021/05/17 06:01:10;;;;;;;4.63;0.82;;;;;;;28.50;38.20;100840.50;5070506;28;20436;-67
2021/05/17 06:03:38;;;;;;;4.68;0.77;;;;;;;28.48;38.03;100844.31;5069894;28;20106;-66
2021/05/17 06:06:08;;;;;;;6.45;0.75;;;;;;;28.60;37.43;100842.72;5067870;28;20249;-66
2021/05/17 06:08:38;;;;;;;5.57;0.85;;;;;;;28.73;37.26;100850.06;5069472;28;20032;-66
2021/05/17 06:11:06;;;;;;;5.30;0.73;;;;;;;28.62;37.24;100852.50;5051286;28;20626;-67
2021/05/17 06:13:37;;;;;;;4.22;0.80;;;;;;;28.74;36.96;100848.22;5066981;28;20048;-67
2021/05/17 06:16:05;;;;;;;7.78;1.10;;;;;;;28.74;37.00;100854.56;5070025;28;20376;-66
2021/05/17 06:18:34;;;;;;;7.95;0.93;;;;;;;28.61;36.87;100856.22;5069324;28;20033;-66
2021/05/17 06:21:01;;;;;;;2.88;0.75;;;;;;;28.40;37.43;100852.00;5069413;28;20120;-67
2021/05/17 06:23:29;;;;;;;6.38;0.82;;;;;;;28.63;37.13;100853.38;5069806;28;20033;-66
2021/05/17 06:25:57;;;;;;;4.28;0.80;;;;;;;28.56;37.00;100847.44;5069274;28;20051;-67
2021/05/17 06:28:25;;;;;;;4.25;0.80;;;;;;;28.53;36.34;100856.66;5069511;28;20052;-67
2021/05/17 06:30:56;;;;;;;5.07;0.90;;;;;;;28.72;36.00;100848.31;5069918;28;20115;-67
2021/05/17 06:33:23;;;;;;;4.28;0.85;;;;;;;28.71;35.94;100851.97;5067814;28;20086;-67
2021/05/17 06:35:53;;;;;;;6.18;0.77;;;;;;;28.48;35.95;100856.06;5070769;28;20066;-67
2021/05/17 06:38:21;;;;;;;2.92;0.75;;;;;;;28.53;36.28;100859.38;5069590;28;20036;-66
2021/05/17 06:40:48;;;;;;;3.83;0.73;;;;;;;28.70;35.45;100857.50;5067017;28;20047;-66
2021/05/17 06:43:16;;;;;;;3.75;0.93;;;;;;;28.77;34.65;100858.94;5066394;28;20560;-67
2021/05/17 06:45:44;;;;;;;4.35;0.60;;;;;;;28.78;34.90;100866.13;5069854;28;20052;-68
2021/05/17 06:48:13;;;;;;;2.38;0.70;;;;;;;28.85;34.80;100872.97;5062109;28;20480;-68
2021/05/17 06:50:41;;;;;;;7.68;0.82;;;;;;;28.92;34.33;100877.06;5059126;28;20125;-67
2021/05/17 06:53:08;;;;;;;3.10;0.93;;;;;;;28.70;34.45;100882.84;5061542;28;20520;-66
2021/05/17 06:55:40;;;;;;;3.63;0.65;;;;;;;28.58;34.80;100871.81;5069051;28;20072;-66
2021/05/17 06:58:13;;;;;;;6.22;1.35;;;;;;;28.52;35.25;100873.03;5067938;28;22101;-67
2021/05/17 07:00:42;;;;;;;3.42;0.60;;;;;;;28.68;34.75;100873.94;5069972;28;20037;-66
2021/05/17 07:03:10;;;;;;;5.35;1.17;;;;;;;28.77;34.80;100865.25;5068021;28;20051;-66
2021/05/17 07:05:40;;;;;;;7.13;0.90;;;;;;;28.87;35.61;100866.47;5066127;28;20037;-66
2021/05/17 07:13:38;;;;;;;3.97;0.85;;;;;;;29.01;35.30;100873.81;5055848;28;20675;-67
2021/05/17 07:16:05;;;;;;;5.47;0.95;;;;;;;28.89;35.35;100875.41;5060425;28;20033;-68
2021/05/17 07:18:32;;;;;;;4.68;1.00;;;;;;;28.96;35.87;100875.91;5068914;28;20492;-67
2021/05/17 07:23:45;;;;;;;1.73;0.57;;;;;;;28.96;34.97;100884.06;5073417;28;20387;-67
2021/05/17 07:26:14;;;;;;;6.03;0.85;;;;;;;29.18;35.05;100880.97;5070585;28;20045;-67
2021/05/17 07:28:42;;;;;;;5.75;1.00;;;;;;;29.21;34.74;100878.09;5064135;28;20044;-67
2021/05/17 07:31:10;;;;;;;2.47;0.50;;;;;;;29.30;34.90;100886.53;5073522;28;20047;-67
2021/05/17 07:33:40;;;;;;;5.47;1.00;;;;;;;29.22;34.77;100886.13;5073554;28;20547;-67
2021/05/17 07:36:09;;;;;;;5.45;0.88;;;;;;;28.84;35.58;100882.06;5072659;28;20036;-67
2021/05/17 07:38:36;;;;;;;6.28;0.70;;;;;;;29.06;35.40;100884.41;5073732;28;20090;-67
2021/05/17 07:41:04;;;;;;;6.05;1.13;;;;;;;29.49;35.09;100890.91;5073800;28;20060;-67
2021/05/17 07:43:31;;;;;;;4.97;0.70;;;;;;;29.70;34.67;100892.31;5073448;28;20032;-67
2021/05/17 07:45:58;;;;;;;4.53;0.60;;;;;;;29.65;34.82;100892.59;5073854;28;20462;-67
2021/05/17 07:48:25;;;;;;;5.25;0.82;;;;;;;29.39;35.17;100896.03;5072794;28;20040;-67
2021/05/17 07:50:52;;;;;;;4.75;0.98;;;;;;;29.22;35.17;100890.69;5072603;28;20041;-67
2021/05/17 07:53:27;;;;;;;6.18;0.95;;;;;;;29.37;35.08;100895.25;5072212;28;20116;-67
2021/05/17 07:55:56;;;;;;;3.85;0.60;;;;;;;29.50;35.07;100895.38;5059244;28;20055;-67
2021/05/17 07:58:24;;;;;;;3.83;0.70;;;;;;;29.37;35.21;100897.09;5071790;28;20071;-67
2021/05/17 08:00:51;;;;;;;2.78;0.70;;;;;;;29.55;35.20;100902.28;5072562;28;20048;-67
2021/05/17 08:03:18;;;;;;;2.67;0.68;;;;;;;29.60;35.04;100902.03;5072209;28;20548;-67
2021/05/17 08:05:45;;;;;;;3.80;1.05;;;;;;;29.51;35.18;100908.91;5062973;28;20072;-67
2021/05/17 08:08:14;;;;;;;3.20;0.82;;;;;;;29.39;35.22;100900.59;5072566;28;20046;-67
2021/05/17 08:10:43;;;;;;;7.45;0.98;;;;;;;29.69;34.79;100902.31;5072884;28;20036;-67
2021/05/17 08:13:10;;;;;;;6.63;1.00;;;;;;;30.02;34.76;100904.81;5072589;28;20068;-67
2021/05/17 08:15:37;;;;;;;4.82;0.77;;;;;;;30.04;34.41;100908.34;5071082;28;20447;-67
2021/05/17 08:18:05;;;;;;;4.32;0.70;;;;;;;30.17;34.32;100908.44;5072227;28;20032;-67
2021/05/17 08:20:32;;;;;;;5.35;0.82;;;;;;;30.22;34.24;100903.56;5070369;28;20443;-67
2021/05/17 08:23:00;;;;;;;5.30;0.95;;;;;;;30.52;33.87;100899.88;5072322;28;20036;-67
2021/05/17 08:25:27;;;;;;;3.92;0.85;;;;;;;30.55;33.46;100906.00;5071900;28;20048;-68
2021/05/17 08:27:56;;;;;;;4.15;1.05;;;;;;;30.51;33.97;100915.34;5072641;28;20040;-67
2021/05/17 08:30:25;;;;;;;4.40;0.85;;;;;;;30.60;33.74;100914.75;5072779;28;20090;-67
2021/05/17 08:32:52;;;;;;;7.82;0.88;;;;;;;30.51;33.84;100917.22;5071616;28;20086;-67
2021/05/17 08:35:19;;;;;;;4.90;0.70;;;;;;;30.59;33.63;100926.63;5070694;28;20131;-66
2021/05/17 08:37:47;;;;;;;7.00;1.10;;;;;;;30.60;33.73;100930.22;5068066;28;20037;-66
2021/05/17 08:40:15;;;;;;;4.43;1.10;;;;;;;30.60;33.68;100931.09;5066878;28;20048;-67
2021/05/17 08:42:42;;;;;;;5.47;0.73;;;;;;;30.79;33.34;100934.38;5072488;28;20060;-67
2021/05/17 08:45:12;;;;;;;5.53;1.00;;;;;;;30.64;33.49;100935.41;5070634;28;20442;-67
2021/05/17 08:47:39;;;;;;;5.05;1.10;;;;;;;30.66;33.76;100933.41;5072120;28;20449;-67
2021/05/17 08:50:08;;;;;;;4.43;1.15;;;;;;;30.69;33.43;100927.78;5071480;28;20559;-67
2021/05/17 08:52:38;;;;;;;4.85;0.95;;;;;;;30.84;33.54;100929.50;5072211;28;20095;-67
2021/05/17 08:55:08;;;;;;;4.80;0.90;;;;;;;31.03;33.16;100934.63;5071853;28;20037;-68
2021/05/17 08:57:35;;;;;;;4.60;0.90;;;;;;;31.03;33.10;100931.00;5072452;28;20119;-67
2021/05/17 09:00:02;;;;;;;7.45;1.15;;;;;;;30.87;33.09;100929.28;5071318;28;20049;-67
2021/05/17 09:02:30;;;;;;;5.10;0.88;;;;;;;30.77;33.24;100924.56;5071311;28;20171;-68
2021/05/17 09:05:16;;;;;;;8.15;1.42;;;;;;;30.71;33.39;100938.59;5071826;28;20119;-67
2021/05/17 09:07:46;;;;;;;3.92;1.02;;;;;;;30.65;33.31;100931.69;5070928;28;20127;-67
2021/05/17 09:10:15;;;;;;;2.97;0.63;;;;;;;30.19;33.67;100930.13;5071517;28;20151;-67
2021/05/17 09:13:00;;;;;;;6.18;0.75;;;;;;;30.17;33.48;100935.69;5071911;28;20123;-67
2021/05/17 09:15:32;;;;;;;4.00;0.80;;;;;;;30.46;33.46;100931.94;5067920;28;20140;-67
2021/05/17 09:18:03;;;;;;;3.28;0.80;;;;;;;30.40;33.19;100928.75;5071535;28;20033;-67
2021/05/17 09:20:35;;;;;;;2.83;0.70;;;;;;;30.45;33.17;100942.97;5071122;28;20210;-67
2021/05/17 09:23:09;;;;;;;4.57;0.80;;;;;;;30.63;32.77;100933.63;5070977;28;20387;-67
2021/05/17 09:25:37;;;;;;;3.22;0.90;;;;;;;30.89;32.71;100927.34;5069665;28;20230;-67
2021/05/17 09:28:07;;;;;;;3.80;0.88;;;;;;;30.99;32.87;100929.44;5071185;28;20380;-67
2021/05/17 09:30:48;;;;;;;5.20;0.82;;;;;;;30.83;33.05;100935.06;5071351;28;20555;-67
2021/05/17 09:33:18;;;;;;;3.35;0.70;;;;;;;30.56;33.35;100932.28;5070983;28;20479;-67
2021/05/17 09:35:46;;;;;;;4.65;1.13;;;;;;;30.46;33.69;100933.81;5063268;28;20167;-66
2021/05/17 09:38:25;;;;;;;3.13;0.80;;;;;;;30.55;33.53;100935.97;5063644;28;20068;-67
2021/05/17 09:41:05;;;;;;;4.00;0.77;;;;;;;30.54;33.12;100927.91;5066701;28;20094;-66
2021/05/17 09:43:33;;;;;;;5.43;0.55;;;;;;;30.36;33.63;100930.81;5065636;28;20037;-68
2021/05/17 09:46:02;;;;;;;5.13;0.65;;;;;;;30.53;33.82;100937.91;5050917;28;20060;-66
2021/05/17 09:48:45;;;;;;;5.22;0.60;;;;;;;30.42;34.27;100934.97;5050338;28;20580;-66
2021/05/17 09:51:14;;;;;;;4.70;0.65;;;;;;;30.07;34.61;100931.75;5030796;28;20041;-66
2021/05/17 09:53:42;;;;;;;3.90;0.73;;;;;;;29.99;34.79;100935.00;5047609;28;20100;-66
2021/05/17 09:56:11;;;;;;;5.43;1.30;;;;;;;29.98;34.79;100933.25;5070326;28;20535;-67
2021/05/17 09:58:40;;;;;;;4.65;0.95;;;;;;;29.80;34.91;100936.19;5070118;28;20124;-67
2021/05/17 10:01:13;;;;;;;3.30;0.90;;;;;;;29.63;35.46;100927.19;5070194;28;20131;-66
2021/05/17 10:03:44;;;;;;;4.43;0.75;;;;;;;29.83;35.20;100916.94;5070133;28;20103;-66
2021/05/17 10:06:13;;;;;;;9.02;1.20;;;;;;;29.91;35.28;100915.50;5070403;28;20119;-67
2021/05/17 10:08:41;;;;;;;6.82;0.85;;;;;;;30.13;34.59;100916.91;5057320;28;20459;-67
2021/05/17 10:11:09;;;;;;;5.70;1.42;;;;;;;30.15;34.28;100914.94;5070111;28;20040;-66
2021/05/17 10:13:36;;;;;;;4.45;0.75;;;;;;;29.81;34.63;100911.56;5070376;28;20083;-67
2021/05/17 10:16:06;;;;;;;3.45;0.70;;;;;;;29.72;34.90;100912.16;5068677;28;20037;-66
2021/05/17 10:18:34;;;;;;;5.43;0.80;;;;;;;29.64;34.85;100918.06;5058032;28;20441;-67
2021/05/17 10:21:07;;;;;;;6.05;0.98;;;;;;;29.63;35.17;100905.44;5047496;28;20591;-67
2021/05/17 10:23:36;;;;;;;6.60;1.08;;;;;;;29.76;34.88;100908.28;5049102;28;20051;-67
2021/05/17 10:26:08;;;;;;;2.72;1.00;;;;;;;29.61;34.87;100915.53;5050460;28;20029;-67
2021/05/17 10:28:37;;;;;;;5.13;1.52;;;;;;;29.50;35.12;100922.59;5069954;28;20036;-67
2021/05/17 10:31:13;;;;;;;6.55;1.00;;;;;;;29.58;34.94;100915.72;5070254;28;20445;-67
2021/05/17 10:33:43;;;;;;;5.60;1.00;;;;;;;29.52;35.07;100920.66;5070571;28;20106;-67
2021/05/17 10:36:12;;;;;;;3.80;0.85;;;;;;;29.62;35.83;100913.69;5069948;28;20377;-67
2021/05/17 10:38:47;;;;;;;4.65;0.80;;;;;;;29.37;35.89;100910.69;5070494;28;20621;-67
2021/05/17 10:41:46;;;;;;;4.68;0.80;;;;;;;29.17;36.09;100909.13;5070155;28;20126;-67
2021/05/17 10:44:31;;;;;;;5.68;0.82;;;;;;;28.87;36.65;100909.97;5050266;28;20511;-67
2021/05/17 10:46:58;;;;;;;4.00;0.73;;;;;;;28.63;37.12;100905.00;5066876;28;20127;-66
2021/05/17 10:49:32;;;;;;;5.82;1.00;;;;;;;28.59;37.75;100911.59;5077061;28;20033;-67
2021/05/17 10:52:25;;;;;;;5.90;0.95;;;;;;;28.42;38.03;100907.97;5056255;28;20037;-67
2021/05/17 10:55:11;;;;;;;5.35;0.90;;;;;;;28.22;38.60;100913.69;5065082;28;20159;-67
2021/05/17 10:58:07;;;;;;;6.55;1.05;;;;;;;28.53;37.83;100913.72;5059700;28;20045;-67
2021/05/17 11:00:38;;;;;;;5.97;1.30;;;;;;;28.55;38.10;100914.47;5072534;28;20390;-66
2021/05/17 11:03:13;;;;;;;4.85;0.90;;;;;;;28.64;37.75;100914.94;5073959;28;20496;-67
2021/05/17 11:05:41;;;;;;;5.05;0.95;;;;;;;28.76;37.98;100911.53;5070733;28;20056;-67
2021/05/17 11:08:10;;;;;;;6.10;1.10;;;;;;;28.67;38.32;100909.34;5073087;28;20114;-66
2021/05/17 11:10:39;;;;;;;4.97;1.20;;;;;;;28.73;38.42;100915.28;5073650;28;20880;-66
2021/05/17 11:13:10;;;;;;;4.38;0.90;;;;;;;28.74;37.77;100906.22;5072744;28;20584;-66
2021/05/17 11:15:59;;;;;;;4.85;1.20;;;;;;;28.98;37.49;100898.47;5072429;28;20048;-66
2021/05/17 11:18:40;;;;;;;3.58;0.77;;;;;;;29.49;36.81;100899.06;5071591;28;20040;-66
2021/05/17 11:21:12;;;;;;;4.57;0.70;;;;;;;29.70;36.74;100898.63;5063716;28;20037;-66
2021/05/17 11:23:53;;;;;;;8.20;0.82;;;;;;;29.86;35.91;100892.25;5068850;28;20036;-67
2021/05/17 11:26:23;;;;;;;6.53;0.93;;;;;;;29.71;36.49;100899.50;5073634;28;20060;-67
2021/05/17 11:29:07;;;;;;;3.50;0.70;;;;;;;30.25;35.22;100894.34;5073284;28;20047;-67
2021/05/17 11:31:57;;;;;;;5.78;1.10;;;;;;;30.35;34.87;100890.03;5052967;28;20496;-66
2021/05/17 11:34:28;;;;;;;5.35;0.90;;;;;;;30.39;34.82;100891.59;5064773;28;20044;-66
2021/05/17 11:37:11;;;;;;;2.53;0.57;;;;;;;30.55;34.46;100889.66;5072325;28;20044;-67
2021/05/17 11:39:41;;;;;;;5.50;0.87;;;;;;;30.37;34.91;100888.09;5073155;28;20555;-67
2021/05/17 11:42:11;;;;;;;3.20;0.80;;;;;;;30.47;35.04;100886.50;5072268;28;20277;-67
2021/05/17 11:44:40;;;;;;;7.15;1.10;;;;;;;30.79;34.53;100889.84;5072810;28;20041;-67
2021/05/17 11:47:10;;;;;;;6.75;1.25;;;;;;;30.76;34.77;100892.81;5073050;28;20032;-66
2021/05/17 11:49:39;;;;;;;3.90;1.10;;;;;;;30.54;35.36;100893.34;5072678;28;20131;-67
2021/05/17 11:52:08;;;;;;;6.35;1.05;;;;;;;30.39;35.52;100892.44;5072456;28;20061;-66